sensor_id;sensor_type;location;lat;lon;timestamp;temperature;humidity
24250;DHT22;12379;49.820;8.648;2022-11-28T00:01:38;5.40;99.90
24250;DHT22;12379;49.820;8.648;2022-11-28T00:04:06;5.30;99.90
24250;DHT22;12379;49.820;8.648;2022-11-28T00:06:38;5.30;99.90
24250;DHT22;12379;49.820;8.648;2022-11-28T00:09:04;5.30;99.90
24250;DHT22;12379;49.820;8.648;2022-11-28T00:11:30;5.30;99.90
24250;DHT22;12379;49.820;8.648;2022-11-28T00:13:55;5.20;99.90
24250;DHT22;12379;49.820;8.648;2022-11-28T00:16:22;5.20;99.90
24250;DHT22;12379;49.820;8.648;2022-11-28T00:18:53;5.20;99.90
24250;DHT22;12379;49.820;8.648;2022-11-28T00:21:19;5.20;99.90
24250;DHT22;12379;49.820;8.648;2022-11-28T00:23:46;5.20;99.90
24250;DHT22;12379;49.820;8.648;2022-11-28T00:26:19;5.20;99.90
24250;DHT22;12379;49.820;8.648;2022-11-28T00:28:45;5.20;99.90
24250;DHT22;12379;49.820;8.648;2022-11-28T00:31:16;5.20;99.90
24250;DHT22;12379;49.820;8.648;2022-11-28T00:33:42;5.20;99.90
24250;DHT22;12379;49.820;8.648;2022-11-28T00:36:08;5.20;99.90
24250;DHT22;12379;49.820;8.648;2022-11-28T00:38:34;5.20;99.90
24250;DHT22;12379;49.820;8.648;2022-11-28T00:41:03;5.10;99.90
24250;DHT22;12379;49.820;8.648;2022-11-28T00:43:29;5.10;99.90
24250;DHT22;12379;49.820;8.648;2022-11-28T00:45:54;5.10;99.90
24250;DHT22;12379;49.820;8.648;2022-11-28T00:48:20;5.10;99.90
24250;DHT22;12379;49.820;8.648;2022-11-28T00:50:46;5.00;99.90
24250;DHT22;12379;49.820;8.648;2022-11-28T00:53:11;5.00;99.90
24250;DHT22;12379;49.820;8.648;2022-11-28T00:55:38;5.00;99.90
24250;DHT22;12379;49.820;8.648;2022-11-28T00:58:03;5.00;99.90
24250;DHT22;12379;49.820;8.648;2022-11-28T01:00:29;5.00;99.90
24250;DHT22;12379;49.820;8.648;2022-11-28T01:02:54;5.10;99.90
24250;DHT22;12379;49.820;8.648;2022-11-28T01:05:20;5.10;99.90
24250;DHT22;12379;49.820;8.648;2022-11-28T01:07:45;5.10;99.90
24250;DHT22;12379;49.820;8.648;2022-11-28T01:10:11;5.10;99.90
24250;DHT22;12379;49.820;8.648;2022-11-28T01:12:37;5.20;99.90
24250;DHT22;12379;49.820;8.648;2022-11-28T01:15:04;5.20;99.90
24250;DHT22;12379;49.820;8.648;2022-11-28T01:17:30;5.10;99.90
24250;DHT22;12379;49.820;8.648;2022-11-28T01:19:56;5.10;99.90
24250;DHT22;12379;49.820;8.648;2022-11-28T01:22:21;5.10;99.90
24250;DHT22;12379;49.820;8.648;2022-11-28T01:24:47;5.20;99.90
24250;DHT22;12379;49.820;8.648;2022-11-28T01:27:12;5.20;99.90
24250;DHT22;12379;49.820;8.648;2022-11-28T01:29:38;5.10;99.90
24250;DHT22;12379;49.820;8.648;2022-11-28T01:32:03;5.20;99.90
24250;DHT22;12379;49.820;8.648;2022-11-28T01:34:29;5.10;99.90
24250;DHT22;12379;49.820;8.648;2022-11-28T01:36:54;5.10;99.90
24250;DHT22;12379;49.820;8.648;2022-11-28T01:39:20;5.10;99.90
24250;DHT22;12379;49.820;8.648;2022-11-28T01:41:46;5.00;99.90
24250;DHT22;12379;49.820;8.648;2022-11-28T01:46:40;4.90;99.90
24250;DHT22;12379;49.820;8.648;2022-11-28T01:49:14;4.90;99.90
24250;DHT22;12379;49.820;8.648;2022-11-28T01:51:45;4.90;99.90
24250;DHT22;12379;49.820;8.648;2022-11-28T01:54:12;4.90;99.90
24250;DHT22;12379;49.820;8.648;2022-11-28T01:56:46;4.90;99.90
24250;DHT22;12379;49.820;8.648;2022-11-28T01:59:15;4.90;99.90
24250;DHT22;12379;49.820;8.648;2022-11-28T02:01:43;4.90;99.90
24250;DHT22;12379;49.820;8.648;2022-11-28T02:04:08;4.90;99.90
24250;DHT22;12379;49.820;8.648;2022-11-28T02:06:34;4.80;99.90
24250;DHT22;12379;49.820;8.648;2022-11-28T02:09:00;4.80;99.90
24250;DHT22;12379;49.820;8.648;2022-11-28T02:14:32;4.80;99.90
24250;DHT22;12379;49.820;8.648;2022-11-28T02:17:22;4.90;99.90
24250;DHT22;12379;49.820;8.648;2022-11-28T02:20:14;4.90;99.90
24250;DHT22;12379;49.820;8.648;2022-11-28T02:22:54;4.90;99.90
24250;DHT22;12379;49.820;8.648;2022-11-28T02:28:33;4.90;99.90
24250;DHT22;12379;49.820;8.648;2022-11-28T02:31:36;4.90;99.90
24250;DHT22;12379;49.820;8.648;2022-11-28T02:34:11;5.00;99.90
24250;DHT22;12379;49.820;8.648;2022-11-28T02:39:58;4.90;99.90
24250;DHT22;12379;49.820;8.648;2022-11-28T02:45:28;4.90;99.90
24250;DHT22;12379;49.820;8.648;2022-11-28T02:48:03;5.10;99.90
24250;DHT22;12379;49.820;8.648;2022-11-28T02:50:34;5.10;99.90
24250;DHT22;12379;49.820;8.648;2022-11-28T02:53:22;5.00;99.90
24250;DHT22;12379;49.820;8.648;2022-11-28T02:55:50;4.90;99.90
24250;DHT22;12379;49.820;8.648;2022-11-28T02:58:16;4.90;99.90
24250;DHT22;12379;49.820;8.648;2022-11-28T03:00:44;4.80;99.90
24250;DHT22;12379;49.820;8.648;2022-11-28T03:06:04;4.80;99.90
24250;DHT22;12379;49.820;8.648;2022-11-28T03:16:45;4.90;99.90
24250;DHT22;12379;49.820;8.648;2022-11-28T03:19:24;4.90;99.90
24250;DHT22;12379;49.820;8.648;2022-11-28T03:22:24;4.80;99.90
24250;DHT22;12379;49.820;8.648;2022-11-28T03:24:59;4.80;99.90
24250;DHT22;12379;49.820;8.648;2022-11-28T03:27:46;4.80;99.90
24250;DHT22;12379;49.820;8.648;2022-11-28T03:30:18;4.90;99.90
24250;DHT22;12379;49.820;8.648;2022-11-28T03:32:49;4.80;99.90
24250;DHT22;12379;49.820;8.648;2022-11-28T03:35:19;4.80;99.90
24250;DHT22;12379;49.820;8.648;2022-11-28T03:37:50;4.80;99.90
24250;DHT22;12379;49.820;8.648;2022-11-28T03:40:21;4.80;99.90
24250;DHT22;12379;49.820;8.648;2022-11-28T03:45:46;4.80;99.90
24250;DHT22;12379;49.820;8.648;2022-11-28T03:48:22;4.70;99.90
24250;DHT22;12379;49.820;8.648;2022-11-28T03:50:58;4.70;99.90
24250;DHT22;12379;49.820;8.648;2022-11-28T03:53:41;4.70;99.90
24250;DHT22;12379;49.820;8.648;2022-11-28T03:56:18;4.70;99.90
24250;DHT22;12379;49.820;8.648;2022-11-28T03:59:03;4.80;99.90
24250;DHT22;12379;49.820;8.648;2022-11-28T04:01:40;4.80;99.90
24250;DHT22;12379;49.820;8.648;2022-11-28T04:04:15;4.80;99.90
24250;DHT22;12379;49.820;8.648;2022-11-28T04:06:46;4.90;99.90
24250;DHT22;12379;49.820;8.648;2022-11-28T04:09:17;5.00;99.90
24250;DHT22;12379;49.820;8.648;2022-11-28T04:11:51;5.00;99.90
24250;DHT22;12379;49.820;8.648;2022-11-28T04:14:23;4.90;99.90
24250;DHT22;12379;49.820;8.648;2022-11-28T04:16:59;4.80;99.90
24250;DHT22;12379;49.820;8.648;2022-11-28T04:22:12;4.90;99.90
24250;DHT22;12379;49.820;8.648;2022-11-28T04:24:46;4.90;99.90
24250;DHT22;12379;49.820;8.648;2022-11-28T04:27:17;4.80;99.90
24250;DHT22;12379;49.820;8.648;2022-11-28T04:29:47;4.80;99.90
24250;DHT22;12379;49.820;8.648;2022-11-28T04:32:14;4.70;99.90
24250;DHT22;12379;49.820;8.648;2022-11-28T04:34:44;4.70;99.90
24250;DHT22;12379;49.820;8.648;2022-11-28T04:37:12;4.80;99.90
24250;DHT22;12379;49.820;8.648;2022-11-28T04:39:42;4.80;99.90
24250;DHT22;12379;49.820;8.648;2022-11-28T04:42:16;4.80;99.90
24250;DHT22;12379;49.820;8.648;2022-11-28T04:44:52;4.90;99.90
24250;DHT22;12379;49.820;8.648;2022-11-28T04:47:19;4.90;99.90
24250;DHT22;12379;49.820;8.648;2022-11-28T04:49:45;5.00;99.90
24250;DHT22;12379;49.820;8.648;2022-11-28T04:52:13;5.00;99.90
24250;DHT22;12379;49.820;8.648;2022-11-28T04:54:58;5.00;99.90
24250;DHT22;12379;49.820;8.648;2022-11-28T04:57:29;5.00;99.90
24250;DHT22;12379;49.820;8.648;2022-11-28T04:59:57;5.00;99.90
24250;DHT22;12379;49.820;8.648;2022-11-28T05:02:25;5.00;99.90
24250;DHT22;12379;49.820;8.648;2022-11-28T05:04:51;4.90;99.90
24250;DHT22;12379;49.820;8.648;2022-11-28T05:07:19;4.90;99.90
24250;DHT22;12379;49.820;8.648;2022-11-28T05:09:46;4.80;99.90
24250;DHT22;12379;49.820;8.648;2022-11-28T05:12:11;4.80;99.90
24250;DHT22;12379;49.820;8.648;2022-11-28T05:14:37;4.80;99.90
24250;DHT22;12379;49.820;8.648;2022-11-28T05:17:02;4.80;99.90
24250;DHT22;12379;49.820;8.648;2022-11-28T05:19:29;4.80;99.90
24250;DHT22;12379;49.820;8.648;2022-11-28T05:21:54;4.80;99.90
24250;DHT22;12379;49.820;8.648;2022-11-28T05:24:20;4.80;99.90
24250;DHT22;12379;49.820;8.648;2022-11-28T05:26:46;4.80;99.90
24250;DHT22;12379;49.820;8.648;2022-11-28T05:29:12;4.80;99.90
24250;DHT22;12379;49.820;8.648;2022-11-28T05:31:37;4.80;99.90
24250;DHT22;12379;49.820;8.648;2022-11-28T05:34:03;4.80;99.90
24250;DHT22;12379;49.820;8.648;2022-11-28T05:36:29;4.80;99.90
24250;DHT22;12379;49.820;8.648;2022-11-28T05:38:55;4.80;99.90
24250;DHT22;12379;49.820;8.648;2022-11-28T05:41:29;4.80;99.90
24250;DHT22;12379;49.820;8.648;2022-11-28T05:43:56;4.70;99.90
24250;DHT22;12379;49.820;8.648;2022-11-28T05:46:22;4.70;99.90
24250;DHT22;12379;49.820;8.648;2022-11-28T05:48:48;4.70;99.90
24250;DHT22;12379;49.820;8.648;2022-11-28T05:51:14;4.70;99.90
24250;DHT22;12379;49.820;8.648;2022-11-28T05:53:40;4.70;99.90
24250;DHT22;12379;49.820;8.648;2022-11-28T05:56:07;4.70;99.90
24250;DHT22;12379;49.820;8.648;2022-11-28T05:58:33;4.70;99.90
24250;DHT22;12379;49.820;8.648;2022-11-28T06:01:03;4.70;99.90
24250;DHT22;12379;49.820;8.648;2022-11-28T06:03:32;4.70;99.90
24250;DHT22;12379;49.820;8.648;2022-11-28T06:05:58;4.70;99.90
24250;DHT22;12379;49.820;8.648;2022-11-28T06:08:23;4.70;99.90
24250;DHT22;12379;49.820;8.648;2022-11-28T06:10:55;4.70;99.90
24250;DHT22;12379;49.820;8.648;2022-11-28T06:13:22;4.70;99.90
24250;DHT22;12379;49.820;8.648;2022-11-28T06:15:48;4.70;99.90
24250;DHT22;12379;49.820;8.648;2022-11-28T06:18:13;4.70;99.90
24250;DHT22;12379;49.820;8.648;2022-11-28T06:20:39;4.60;99.90
24250;DHT22;12379;49.820;8.648;2022-11-28T06:23:04;4.60;99.90
24250;DHT22;12379;49.820;8.648;2022-11-28T06:25:30;4.60;99.90
24250;DHT22;12379;49.820;8.648;2022-11-28T06:27:55;4.60;99.90
24250;DHT22;12379;49.820;8.648;2022-11-28T06:30:21;4.70;99.90
24250;DHT22;12379;49.820;8.648;2022-11-28T06:32:46;4.70;99.90
24250;DHT22;12379;49.820;8.648;2022-11-28T06:35:12;4.70;99.90
24250;DHT22;12379;49.820;8.648;2022-11-28T06:37:37;4.70;99.90
24250;DHT22;12379;49.820;8.648;2022-11-28T06:40:03;4.70;99.90
24250;DHT22;12379;49.820;8.648;2022-11-28T06:42:34;4.70;99.90
24250;DHT22;12379;49.820;8.648;2022-11-28T06:45:02;4.60;99.90
24250;DHT22;12379;49.820;8.648;2022-11-28T06:47:27;4.70;99.90
24250;DHT22;12379;49.820;8.648;2022-11-28T06:49:53;4.70;99.90
24250;DHT22;12379;49.820;8.648;2022-11-28T06:52:18;4.70;99.90
24250;DHT22;12379;49.820;8.648;2022-11-28T06:54:44;4.70;99.90
24250;DHT22;12379;49.820;8.648;2022-11-28T06:57:09;4.70;99.90
24250;DHT22;12379;49.820;8.648;2022-11-28T06:59:35;4.90;99.90
24250;DHT22;12379;49.820;8.648;2022-11-28T07:02:01;5.00;99.90
24250;DHT22;12379;49.820;8.648;2022-11-28T07:04:27;4.90;99.90
24250;DHT22;12379;49.820;8.648;2022-11-28T07:06:53;5.00;99.90
24250;DHT22;12379;49.820;8.648;2022-11-28T07:09:19;4.80;99.90
24250;DHT22;12379;49.820;8.648;2022-11-28T07:11:44;4.80;99.90
24250;DHT22;12379;49.820;8.648;2022-11-28T07:14:10;4.70;99.90
24250;DHT22;12379;49.820;8.648;2022-11-28T07:16:36;4.60;99.90
24250;DHT22;12379;49.820;8.648;2022-11-28T07:19:03;4.60;99.90
24250;DHT22;12379;49.820;8.648;2022-11-28T07:21:29;4.60;99.90
24250;DHT22;12379;49.820;8.648;2022-11-28T07:23:59;4.60;99.90
24250;DHT22;12379;49.820;8.648;2022-11-28T07:26:28;4.60;99.90
24250;DHT22;12379;49.820;8.648;2022-11-28T07:28:54;4.70;99.90
24250;DHT22;12379;49.820;8.648;2022-11-28T07:31:23;4.60;99.90
24250;DHT22;12379;49.820;8.648;2022-11-28T07:33:55;4.70;99.90
24250;DHT22;12379;49.820;8.648;2022-11-28T07:36:26;4.70;99.90
24250;DHT22;12379;49.820;8.648;2022-11-28T07:38:57;4.70;99.90
24250;DHT22;12379;49.820;8.648;2022-11-28T07:41:24;4.70;99.90
24250;DHT22;12379;49.820;8.648;2022-11-28T07:43:53;4.70;99.90
24250;DHT22;12379;49.820;8.648;2022-11-28T07:46:19;4.70;99.90
24250;DHT22;12379;49.820;8.648;2022-11-28T07:48:44;4.70;99.90
24250;DHT22;12379;49.820;8.648;2022-11-28T07:51:22;4.70;99.90
24250;DHT22;12379;49.820;8.648;2022-11-28T07:53:49;4.70;99.90
24250;DHT22;12379;49.820;8.648;2022-11-28T07:56:16;4.70;99.90
24250;DHT22;12379;49.820;8.648;2022-11-28T07:58:44;4.70;99.90
24250;DHT22;12379;49.820;8.648;2022-11-28T08:01:21;4.70;99.90
24250;DHT22;12379;49.820;8.648;2022-11-28T08:03:47;4.80;99.90
24250;DHT22;12379;49.820;8.648;2022-11-28T08:06:14;4.80;99.90
24250;DHT22;12379;49.820;8.648;2022-11-28T08:08:41;4.70;99.90
24250;DHT22;12379;49.820;8.648;2022-11-28T08:11:08;4.80;99.90
24250;DHT22;12379;49.820;8.648;2022-11-28T08:13:35;4.90;99.90
24250;DHT22;12379;49.820;8.648;2022-11-28T08:16:05;4.90;99.90
24250;DHT22;12379;49.820;8.648;2022-11-28T08:18:32;5.00;99.90
24250;DHT22;12379;49.820;8.648;2022-11-28T08:21:06;5.10;99.90
24250;DHT22;12379;49.820;8.648;2022-11-28T08:23:33;5.10;99.90
24250;DHT22;12379;49.820;8.648;2022-11-28T08:26:00;5.20;99.90
24250;DHT22;12379;49.820;8.648;2022-11-28T08:28:27;5.20;99.90
24250;DHT22;12379;49.820;8.648;2022-11-28T08:30:53;5.20;99.90
24250;DHT22;12379;49.820;8.648;2022-11-28T08:33:18;5.20;99.90
24250;DHT22;12379;49.820;8.648;2022-11-28T08:35:44;5.10;99.90
24250;DHT22;12379;49.820;8.648;2022-11-28T08:38:09;5.20;99.90
24250;DHT22;12379;49.820;8.648;2022-11-28T08:40:35;5.30;99.90
24250;DHT22;12379;49.820;8.648;2022-11-28T08:43:00;5.30;99.90
24250;DHT22;12379;49.820;8.648;2022-11-28T08:45:26;5.40;99.90
24250;DHT22;12379;49.820;8.648;2022-11-28T08:47:51;5.50;99.90
24250;DHT22;12379;49.820;8.648;2022-11-28T08:50:17;5.60;99.90
24250;DHT22;12379;49.820;8.648;2022-11-28T08:52:43;5.60;99.90
24250;DHT22;12379;49.820;8.648;2022-11-28T08:55:08;5.70;99.90
24250;DHT22;12379;49.820;8.648;2022-11-28T08:57:34;5.70;99.90
24250;DHT22;12379;49.820;8.648;2022-11-28T08:59:59;5.70;99.90
24250;DHT22;12379;49.820;8.648;2022-11-28T09:02:25;5.80;99.90
24250;DHT22;12379;49.820;8.648;2022-11-28T09:04:51;5.90;99.90
24250;DHT22;12379;49.820;8.648;2022-11-28T09:07:16;6.00;99.90
24250;DHT22;12379;49.820;8.648;2022-11-28T09:09:42;6.10;99.90
24250;DHT22;12379;49.820;8.648;2022-11-28T09:12:07;6.20;99.90
24250;DHT22;12379;49.820;8.648;2022-11-28T09:14:33;6.20;99.90
24250;DHT22;12379;49.820;8.648;2022-11-28T09:16:58;6.20;99.90
24250;DHT22;12379;49.820;8.648;2022-11-28T09:19:24;6.20;99.90
24250;DHT22;12379;49.820;8.648;2022-11-28T09:21:49;6.20;99.90
24250;DHT22;12379;49.820;8.648;2022-11-28T09:24:15;6.20;99.90
24250;DHT22;12379;49.820;8.648;2022-11-28T09:26:41;6.20;99.90
24250;DHT22;12379;49.820;8.648;2022-11-28T09:29:06;6.30;99.90
24250;DHT22;12379;49.820;8.648;2022-11-28T09:31:32;6.40;99.90
24250;DHT22;12379;49.820;8.648;2022-11-28T09:33:58;6.50;99.90
24250;DHT22;12379;49.820;8.648;2022-11-28T09:36:23;6.50;99.90
24250;DHT22;12379;49.820;8.648;2022-11-28T09:38:50;6.60;99.90
24250;DHT22;12379;49.820;8.648;2022-11-28T09:46:24;6.90;99.90
24250;DHT22;12379;49.820;8.648;2022-11-28T09:48:53;6.80;99.90
24250;DHT22;12379;49.820;8.648;2022-11-28T09:51:33;6.80;99.90
24250;DHT22;12379;49.820;8.648;2022-11-28T09:56:24;6.90;99.90
24250;DHT22;12379;49.820;8.648;2022-11-28T09:58:53;7.00;99.90
24250;DHT22;12379;49.820;8.648;2022-11-28T10:04:23;7.00;99.90
24250;DHT22;12379;49.820;8.648;2022-11-28T10:10:12;7.10;99.90
24250;DHT22;12379;49.820;8.648;2022-11-28T10:15:39;7.20;99.90
24250;DHT22;12379;49.820;8.648;2022-11-28T10:18:27;7.30;99.90
24250;DHT22;12379;49.820;8.648;2022-11-28T10:20:58;7.30;99.90
24250;DHT22;12379;49.820;8.648;2022-11-28T10:23:38;7.20;99.90
24250;DHT22;12379;49.820;8.648;2022-11-28T10:26:07;7.20;99.90
24250;DHT22;12379;49.820;8.648;2022-11-28T10:28:40;7.20;99.90
24250;DHT22;12379;49.820;8.648;2022-11-28T10:33:45;7.30;99.90
24250;DHT22;12379;49.820;8.648;2022-11-28T10:36:21;7.30;99.90
24250;DHT22;12379;49.820;8.648;2022-11-28T10:38:48;7.40;99.90
24250;DHT22;12379;49.820;8.648;2022-11-28T10:41:33;7.30;99.90
24250;DHT22;12379;49.820;8.648;2022-11-28T10:44:21;7.40;99.90
24250;DHT22;12379;49.820;8.648;2022-11-28T10:47:02;7.40;99.90
24250;DHT22;12379;49.820;8.648;2022-11-28T10:49:57;7.30;99.90
24250;DHT22;12379;49.820;8.648;2022-11-28T10:52:41;7.40;99.90
24250;DHT22;12379;49.820;8.648;2022-11-28T10:55:24;7.50;99.90
24250;DHT22;12379;49.820;8.648;2022-11-28T10:58:18;7.50;99.90
24250;DHT22;12379;49.820;8.648;2022-11-28T11:00:47;7.60;99.90
24250;DHT22;12379;49.820;8.648;2022-11-28T11:03:17;7.60;99.90
24250;DHT22;12379;49.820;8.648;2022-11-28T11:05:43;7.70;99.90
24250;DHT22;12379;49.820;8.648;2022-11-28T11:08:19;7.70;99.90
24250;DHT22;12379;49.820;8.648;2022-11-28T11:13:58;8.00;99.90
24250;DHT22;12379;49.820;8.648;2022-11-28T11:16:24;8.10;99.90
24250;DHT22;12379;49.820;8.648;2022-11-28T11:18:52;8.20;99.90
24250;DHT22;12379;49.820;8.648;2022-11-28T11:21:23;8.30;99.90
24250;DHT22;12379;49.820;8.648;2022-11-28T11:24:14;8.20;99.90
24250;DHT22;12379;49.820;8.648;2022-11-28T11:26:42;8.00;99.90
24250;DHT22;12379;49.820;8.648;2022-11-28T11:31:52;7.80;99.90
24250;DHT22;12379;49.820;8.648;2022-11-28T11:34:52;7.90;99.90
24250;DHT22;12379;49.820;8.648;2022-11-28T11:37:32;8.00;99.90
24250;DHT22;12379;49.820;8.648;2022-11-28T11:39:58;8.00;99.90
24250;DHT22;12379;49.820;8.648;2022-11-28T11:42:26;8.10;99.90
24250;DHT22;12379;49.820;8.648;2022-11-28T11:44:52;8.20;99.90
24250;DHT22;12379;49.820;8.648;2022-11-28T11:47:18;8.20;99.90
24250;DHT22;12379;49.820;8.648;2022-11-28T11:49:46;8.20;99.90
24250;DHT22;12379;49.820;8.648;2022-11-28T11:57:11;8.20;99.90
24250;DHT22;12379;49.820;8.648;2022-11-28T11:59:41;8.20;99.90
24250;DHT22;12379;49.820;8.648;2022-11-28T12:02:39;8.30;99.90
24250;DHT22;12379;49.820;8.648;2022-11-28T12:05:11;8.30;99.90
24250;DHT22;12379;49.820;8.648;2022-11-28T12:10:17;8.40;99.90
24250;DHT22;12379;49.820;8.648;2022-11-28T12:12:44;8.40;99.90
24250;DHT22;12379;49.820;8.648;2022-11-28T12:15:25;8.40;99.90
24250;DHT22;12379;49.820;8.648;2022-11-28T12:18:25;8.50;99.90
24250;DHT22;12379;49.820;8.648;2022-11-28T12:50:37;8.10;99.90
24250;DHT22;12379;49.820;8.648;2022-11-28T12:53:08;8.10;99.90
24250;DHT22;12379;49.820;8.648;2022-11-28T13:01:25;8.20;99.90
24250;DHT22;12379;49.820;8.648;2022-11-28T13:04:00;8.10;99.90
24250;DHT22;12379;49.820;8.648;2022-11-28T13:06:39;8.20;99.90
24250;DHT22;12379;49.820;8.648;2022-11-28T13:12:28;8.40;99.90
24250;DHT22;12379;49.820;8.648;2022-11-28T13:14:59;8.30;99.90
24250;DHT22;12379;49.820;8.648;2022-11-28T13:18:25;8.30;99.90
24250;DHT22;12379;49.820;8.648;2022-11-28T13:21:05;8.30;99.90
24250;DHT22;12379;49.820;8.648;2022-11-28T13:31:48;8.30;99.90
24250;DHT22;12379;49.820;8.648;2022-11-28T13:34:16;8.40;99.90
24250;DHT22;12379;49.820;8.648;2022-11-28T13:40:05;8.40;99.90
24250;DHT22;12379;49.820;8.648;2022-11-28T13:45:29;8.50;99.90
24250;DHT22;12379;49.820;8.648;2022-11-28T13:47:55;8.40;99.90
24250;DHT22;12379;49.820;8.648;2022-11-28T13:52:59;8.40;99.90
24250;DHT22;12379;49.820;8.648;2022-11-28T13:55:45;8.40;99.90
24250;DHT22;12379;49.820;8.648;2022-11-28T13:58:33;8.40;99.90
24250;DHT22;12379;49.820;8.648;2022-11-28T14:01:09;8.40;99.90
24250;DHT22;12379;49.820;8.648;2022-11-28T14:03:48;8.50;99.90
24250;DHT22;12379;49.820;8.648;2022-11-28T14:06:42;8.60;99.90
24250;DHT22;12379;49.820;8.648;2022-11-28T14:15:25;8.60;99.90
24250;DHT22;12379;49.820;8.648;2022-11-28T14:20:57;8.50;99.90
24250;DHT22;12379;49.820;8.648;2022-11-28T14:24:35;8.50;99.90
24250;DHT22;12379;49.820;8.648;2022-11-28T14:26:35;8.50;99.90
24250;DHT22;12379;49.820;8.648;2022-11-28T14:29:05;8.50;99.90
24250;DHT22;12379;49.820;8.648;2022-11-28T14:31:36;8.40;99.90
24250;DHT22;12379;49.820;8.648;2022-11-28T14:34:34;8.30;99.90
24250;DHT22;12379;49.820;8.648;2022-11-28T14:39:50;8.40;99.90
24250;DHT22;12379;49.820;8.648;2022-11-28T14:44:57;8.30;99.90
24250;DHT22;12379;49.820;8.648;2022-11-28T14:50:44;8.20;99.90
24250;DHT22;12379;49.820;8.648;2022-11-28T14:52:38;8.20;99.90
24250;DHT22;12379;49.820;8.648;2022-11-28T14:55:17;8.20;99.90
24250;DHT22;12379;49.820;8.648;2022-11-28T15:00:17;8.10;99.90
24250;DHT22;12379;49.820;8.648;2022-11-28T15:05:38;8.00;99.90
24250;DHT22;12379;49.820;8.648;2022-11-28T15:11:11;7.90;99.90
24250;DHT22;12379;49.820;8.648;2022-11-28T15:13:57;7.90;99.90
24250;DHT22;12379;49.820;8.648;2022-11-28T15:16:30;7.90;99.90
24250;DHT22;12379;49.820;8.648;2022-11-28T15:19:01;7.90;99.90
24250;DHT22;12379;49.820;8.648;2022-11-28T15:21:44;7.90;99.90
24250;DHT22;12379;49.820;8.648;2022-11-28T15:29:27;7.80;99.90
24250;DHT22;12379;49.820;8.648;2022-11-28T15:31:54;7.70;99.90
24250;DHT22;12379;49.820;8.648;2022-11-28T15:34:30;7.70;99.90
24250;DHT22;12379;49.820;8.648;2022-11-28T15:37:01;7.70;99.90
24250;DHT22;12379;49.820;8.648;2022-11-28T15:39:34;7.60;99.90
24250;DHT22;12379;49.820;8.648;2022-11-28T15:42:02;7.70;99.90
24250;DHT22;12379;49.820;8.648;2022-11-28T15:44:30;7.60;99.90
24250;DHT22;12379;49.820;8.648;2022-11-28T15:46:55;7.60;99.90
24250;DHT22;12379;49.820;8.648;2022-11-28T15:49:32;7.60;99.90
24250;DHT22;12379;49.820;8.648;2022-11-28T15:52:01;7.60;99.90
24250;DHT22;12379;49.820;8.648;2022-11-28T15:54:40;7.60;99.90
24250;DHT22;12379;49.820;8.648;2022-11-28T15:57:16;7.70;99.90
24250;DHT22;12379;49.820;8.648;2022-11-28T15:59:43;7.60;99.90
24250;DHT22;12379;49.820;8.648;2022-11-28T16:02:20;7.60;99.90
24250;DHT22;12379;49.820;8.648;2022-11-28T16:04:50;7.60;99.90
24250;DHT22;12379;49.820;8.648;2022-11-28T16:07:18;7.50;99.90
24250;DHT22;12379;49.820;8.648;2022-11-28T16:10:00;7.50;99.90
24250;DHT22;12379;49.820;8.648;2022-11-28T16:12:28;7.50;99.90
24250;DHT22;12379;49.820;8.648;2022-11-28T16:14:54;7.40;99.90
24250;DHT22;12379;49.820;8.648;2022-11-28T16:17:28;7.40;99.90
24250;DHT22;12379;49.820;8.648;2022-11-28T16:19:56;7.30;99.90
24250;DHT22;12379;49.820;8.648;2022-11-28T16:22:35;7.30;99.90
24250;DHT22;12379;49.820;8.648;2022-11-28T16:25:16;7.30;99.90
24250;DHT22;12379;49.820;8.648;2022-11-28T16:27:44;7.20;99.90
24250;DHT22;12379;49.820;8.648;2022-11-28T16:30:35;7.20;99.90
24250;DHT22;12379;49.820;8.648;2022-11-28T16:33:31;7.20;99.90
24250;DHT22;12379;49.820;8.648;2022-11-28T16:35:48;7.20;99.90
24250;DHT22;12379;49.820;8.648;2022-11-28T16:38:21;7.20;99.90
24250;DHT22;12379;49.820;8.648;2022-11-28T16:40:48;7.20;99.90
24250;DHT22;12379;49.820;8.648;2022-11-28T16:46:01;7.20;99.90
24250;DHT22;12379;49.820;8.648;2022-11-28T16:48:32;7.20;99.90
24250;DHT22;12379;49.820;8.648;2022-11-28T16:53:52;7.20;99.90
24250;DHT22;12379;49.820;8.648;2022-11-28T16:59:15;7.20;99.90
24250;DHT22;12379;49.820;8.648;2022-11-28T17:01:44;7.20;99.90
24250;DHT22;12379;49.820;8.648;2022-11-28T17:04:23;7.20;99.90
24250;DHT22;12379;49.820;8.648;2022-11-28T17:06:51;7.20;99.90
24250;DHT22;12379;49.820;8.648;2022-11-28T17:09:17;7.20;99.90
24250;DHT22;12379;49.820;8.648;2022-11-28T17:11:48;7.20;99.90
24250;DHT22;12379;49.820;8.648;2022-11-28T17:14:15;7.20;99.90
24250;DHT22;12379;49.820;8.648;2022-11-28T17:16:41;7.10;99.90
24250;DHT22;12379;49.820;8.648;2022-11-28T17:19:07;7.10;99.90
24250;DHT22;12379;49.820;8.648;2022-11-28T17:21:39;7.10;99.90
24250;DHT22;12379;49.820;8.648;2022-11-28T17:24:23;7.10;99.90
24250;DHT22;12379;49.820;8.648;2022-11-28T17:26:50;7.10;99.90
24250;DHT22;12379;49.820;8.648;2022-11-28T17:29:16;7.10;99.90
24250;DHT22;12379;49.820;8.648;2022-11-28T17:31:43;7.10;99.90
24250;DHT22;12379;49.820;8.648;2022-11-28T17:34:25;7.10;99.90
24250;DHT22;12379;49.820;8.648;2022-11-28T17:36:51;7.00;99.90
24250;DHT22;12379;49.820;8.648;2022-11-28T17:39:18;7.00;99.90
24250;DHT22;12379;49.820;8.648;2022-11-28T17:41:43;7.00;99.90
24250;DHT22;12379;49.820;8.648;2022-11-28T17:44:20;7.00;99.90
24250;DHT22;12379;49.820;8.648;2022-11-28T17:46:48;7.00;99.90
24250;DHT22;12379;49.820;8.648;2022-11-28T17:49:14;7.00;99.90
24250;DHT22;12379;49.820;8.648;2022-11-28T17:51:40;7.00;99.90
24250;DHT22;12379;49.820;8.648;2022-11-28T17:54:06;7.00;99.90
24250;DHT22;12379;49.820;8.648;2022-11-28T17:56:32;7.00;99.90
24250;DHT22;12379;49.820;8.648;2022-11-28T17:58:58;7.00;99.90
24250;DHT22;12379;49.820;8.648;2022-11-28T18:01:26;7.00;99.90
24250;DHT22;12379;49.820;8.648;2022-11-28T18:03:53;7.00;99.90
24250;DHT22;12379;49.820;8.648;2022-11-28T18:06:19;7.00;99.90
24250;DHT22;12379;49.820;8.648;2022-11-28T18:08:46;7.00;99.90
24250;DHT22;12379;49.820;8.648;2022-11-28T18:11:14;7.00;99.90
24250;DHT22;12379;49.820;8.648;2022-11-28T18:13:40;7.00;99.90
24250;DHT22;12379;49.820;8.648;2022-11-28T18:16:11;7.00;99.90
24250;DHT22;12379;49.820;8.648;2022-11-28T18:18:38;7.00;99.90
24250;DHT22;12379;49.820;8.648;2022-11-28T18:21:05;7.00;99.90
24250;DHT22;12379;49.820;8.648;2022-11-28T18:23:33;7.00;99.90
24250;DHT22;12379;49.820;8.648;2022-11-28T18:25:59;7.00;99.90
24250;DHT22;12379;49.820;8.648;2022-11-28T18:28:29;7.00;99.90
24250;DHT22;12379;49.820;8.648;2022-11-28T18:30:54;7.00;99.90
24250;DHT22;12379;49.820;8.648;2022-11-28T18:33:20;6.90;99.90
24250;DHT22;12379;49.820;8.648;2022-11-28T18:35:46;6.90;99.90
24250;DHT22;12379;49.820;8.648;2022-11-28T18:38:11;6.90;99.90
24250;DHT22;12379;49.820;8.648;2022-11-28T18:40:37;6.90;99.90
24250;DHT22;12379;49.820;8.648;2022-11-28T18:43:04;6.90;99.90
24250;DHT22;12379;49.820;8.648;2022-11-28T18:45:30;6.90;99.90